createdAt,value
2022-11-21T00:05:25.085Z,98640.3
2022-11-21T00:11:17.215Z,98629.8
2022-11-21T00:16:58.248Z,98621.5
2022-11-21T00:22:40.541Z,98613.8
2022-11-21T00:28:16.858Z,98598.4
2022-11-21T00:34:00.195Z,98587.6
2022-11-21T00:39:35.341Z,98573.5
2022-11-21T00:45:32.132Z,98558.1
2022-11-21T00:51:08.247Z,98540
2022-11-21T00:57:30.638Z,98518
2022-11-21T01:03:21.672Z,98495.5
2022-11-21T01:09:05.871Z,98472.8
2022-11-21T01:15:21.419Z,98466.5
2022-11-21T01:20:57.083Z,98472.9
2022-11-21T01:26:38.007Z,98484.1
2022-11-21T01:32:13.274Z,98510.3
2022-11-21T01:37:53.738Z,98483.9
2022-11-21T01:43:35.858Z,98481.8
2022-11-21T01:49:33.841Z,98475.2
2022-11-21T01:55:06.645Z,98468.7
2022-11-21T02:01:03.029Z,98481.6
2022-11-21T02:06:38.719Z,98465.5
2022-11-21T02:12:16.259Z,98436.7
2022-11-21T02:17:54.418Z,98395.8
2022-11-21T02:23:39.766Z,98387.8
2022-11-21T02:29:18.414Z,98357.6
2022-11-21T02:34:56.097Z,98309.3
2022-11-21T02:40:39.700Z,98277.4
2022-11-21T02:46:36.407Z,98253.1
2022-11-21T02:52:09.209Z,98231.5
2022-11-21T02:57:47.529Z,98209.5
2022-11-21T03:03:26.269Z,98205.9
2022-11-21T03:09:01.638Z,98177
2022-11-21T03:15:18.734Z,98161.4
2022-11-21T03:20:53.802Z,98143.6
2022-11-21T03:26:31.178Z,98141.9
2022-11-21T03:32:07.069Z,98104.9
2022-11-21T03:38:04.724Z,98094.8
2022-11-21T03:43:45.056Z,98077.8
2022-11-21T03:49:41.872Z,98071
2022-11-21T03:55:15.263Z,98052.8
2022-11-21T04:00:58.886Z,98022.9
2022-11-21T04:06:34.898Z,98022.2
2022-11-21T04:12:17.272Z,98006.8
2022-11-21T04:17:52.123Z,98006.3
2022-11-21T04:23:38.273Z,97980
2022-11-21T04:29:16.681Z,97979.2
2022-11-21T04:36:36.455Z,97974.8
2022-11-21T04:42:23.097Z,97961.6
2022-11-21T04:48:22.016Z,97961
2022-11-21T04:53:54.815Z,97945.1
2022-11-21T04:59:48.073Z,97926.3
2022-11-21T05:05:34.174Z,97921.7
2022-11-21T05:11:24.898Z,97925.6
2022-11-21T05:16:59.816Z,97909
2022-11-21T05:22:36.036Z,97895.6
2022-11-21T05:28:14.617Z,97874.8
2022-11-21T05:33:54.808Z,97868.5
2022-11-21T05:39:30.917Z,97844.3
2022-11-21T05:45:15.078Z,97825.1
2022-11-21T05:50:59.520Z,97818.2
2022-11-21T05:56:35.772Z,97807.4
2022-11-21T06:02:10.710Z,97795.6
2022-11-21T06:07:55.471Z,97791.1
2022-11-21T06:13:52.881Z,97783.6
2022-11-21T06:19:49.543Z,97769.8
2022-11-21T06:25:24.544Z,97747.7
2022-11-21T06:31:05.332Z,97731
2022-11-21T06:36:40.407Z,97719.8
2022-11-21T06:42:30.278Z,97717.7
2022-11-21T06:49:12.094Z,97699.8
2022-11-21T06:54:44.987Z,97696.3
2022-11-21T07:00:21.468Z,97685.2
2022-11-21T07:06:09.083Z,97672.3
2022-11-21T07:11:54.130Z,97676.7
2022-11-21T07:17:42.927Z,97652.3
2022-11-21T07:23:19.069Z,97656.3
2022-11-21T07:28:54.962Z,97643.6
2022-11-21T07:34:29.960Z,97605.7
2022-11-21T07:40:06.645Z,97603.8
2022-11-21T07:45:41.658Z,97594.8
2022-11-21T07:51:16.548Z,97608
2022-11-21T07:56:51.439Z,97584.2
2022-11-21T08:02:26.505Z,97583.1
2022-11-21T08:08:01.844Z,97548.2
2022-11-21T08:13:37.285Z,97550.6
2022-11-21T08:19:12.618Z,97537.9
2022-11-21T08:24:48.193Z,97542.6
2022-11-21T08:30:24.463Z,97539.1
2022-11-21T08:35:59.762Z,97534.7
2022-11-21T08:41:34.802Z,97543
2022-11-21T08:47:31.578Z,97545.2
2022-11-21T08:53:05.314Z,97546.7
2022-11-21T08:58:40.905Z,97550.8
2022-11-21T09:04:18.608Z,97586.8
2022-11-21T09:09:54.891Z,97598.9
2022-11-21T09:15:30.194Z,97588.4
2022-11-21T09:21:05.914Z,97624.1
2022-11-21T09:26:41.206Z,97638.7
2022-11-21T09:32:16.376Z,97637.2
2022-11-21T09:37:51.496Z,97617
2022-11-21T09:43:27.798Z,97598.6
2022-11-21T09:49:24.495Z,97593.8
2022-11-21T09:54:59.896Z,97585.5
2022-11-21T10:00:34.969Z,97587.4
2022-11-21T10:06:11.815Z,97595.6
2022-11-21T10:11:57.741Z,97597.8
2022-11-21T10:17:32.795Z,97590.4
2022-11-21T10:23:07.848Z,97577.9
2022-11-21T10:28:43.841Z,97579.8
2022-11-21T10:34:19.433Z,97575
2022-11-21T10:39:55.197Z,97555.5
2022-11-21T10:45:31.824Z,97536.9
2022-11-21T10:51:07.934Z,97496.8
2022-11-21T10:56:42.940Z,97507
2022-11-21T11:02:18.548Z,97486
2022-11-21T11:07:53.463Z,97480.3
2022-11-21T11:13:59.004Z,97487
2022-11-21T11:19:41.534Z,97478.2
2022-11-21T11:25:19.131Z,97493.8
2022-11-21T11:30:56.329Z,97490.2
2022-11-21T11:36:31.820Z,97571.7
2022-11-21T11:42:06.955Z,97556.5
2022-11-21T11:48:13.914Z,97561.3
2022-11-21T11:53:47.502Z,97564.3
2022-11-21T11:59:23.457Z,97568.2
2022-11-21T12:04:58.883Z,97565.1
2022-11-21T12:10:33.773Z,97561.2
2022-11-21T12:16:14.713Z,97538.9
2022-11-21T12:21:50.186Z,97559.7
2022-11-21T12:27:25.336Z,97559.3
2022-11-21T12:33:09.694Z,97563.8
2022-11-21T12:38:47.364Z,97544.3
2022-11-21T12:44:23.409Z,97533
2022-11-21T12:49:58.776Z,97510.7
2022-11-21T12:55:43.073Z,97497.7
2022-11-21T13:01:33.451Z,97497.5
2022-11-21T13:07:09.914Z,97481.4
2022-11-21T13:12:45.574Z,97480.9
2022-11-21T13:18:22.025Z,97494.4
2022-11-21T13:23:56.794Z,97496.8
2022-11-21T13:29:32.565Z,97430.5
2022-11-21T13:35:22.555Z,97453.7
2022-11-21T13:40:58.984Z,97439.1
2022-11-21T13:46:35.031Z,97432.8
2022-11-21T13:52:10.554Z,97442.6
2022-11-21T13:57:45.645Z,97460
2022-11-21T14:03:21.110Z,97483.1
2022-11-21T14:08:56.373Z,97514.6
2022-11-21T14:14:31.813Z,97522.7
2022-11-21T14:20:16.659Z,97563
2022-11-21T14:25:52.071Z,97565.6
2022-11-21T14:31:27.248Z,97580.9
2022-11-21T14:37:02.855Z,97589.4
2022-11-21T14:42:38.075Z,97614.7
2022-11-21T14:48:14.460Z,97661.4
2022-11-21T14:53:49.422Z,97670.8
2022-11-21T14:59:25.386Z,97677.8
2022-11-21T15:05:00.589Z,97685.3
2022-11-21T15:10:37.176Z,97681.1
2022-11-21T15:16:15.602Z,97709.4
2022-11-21T15:22:12.251Z,97713.8
2022-11-21T15:27:47.986Z,97735.2
2022-11-21T15:33:23.621Z,97745.2
2022-11-21T15:38:58.469Z,97756.3
2022-11-21T15:44:40.131Z,97774.4
2022-11-21T15:50:15.754Z,97771.1
2022-11-21T15:55:51.020Z,97761.3
2022-11-21T16:01:26.649Z,97770.7
2022-11-21T16:07:03.519Z,97796.3
2022-11-21T16:12:39.647Z,97727.5
2022-11-21T16:18:15.877Z,97732.1
2022-11-21T16:23:52.476Z,97730.1
2022-11-21T16:29:28.868Z,97714.4
2022-11-21T16:35:07.335Z,97700.7
2022-11-21T16:40:42.624Z,97673.7
2022-11-21T16:46:19.187Z,97653.5
2022-11-21T16:51:54.390Z,97642.7
2022-11-21T16:57:29.419Z,97633
2022-11-21T17:03:13.857Z,97647.7
2022-11-21T17:08:49.724Z,97643.5
2022-11-21T17:14:24.854Z,97669.6
2022-11-21T17:20:03.428Z,97714.3
2022-11-21T17:25:38.800Z,97725.6
2022-11-21T17:31:19.987Z,97739.5
2022-11-21T17:36:55.149Z,97750.8
2022-11-21T17:42:36.300Z,97756.5
2022-11-21T17:48:13.108Z,97686
2022-11-21T17:53:50.330Z,97685.8
2022-11-21T17:59:25.712Z,97700.8
2022-11-21T18:05:02.812Z,97712.5
2022-11-21T18:10:48.527Z,97728.1
2022-11-21T18:17:09.155Z,97735.6
2022-11-21T18:22:47.818Z,97747.8
2022-11-21T18:28:28.445Z,97764.8
2022-11-21T18:34:07.606Z,97787.4
2022-11-21T18:39:45.108Z,97813.9
2022-11-21T18:45:21.206Z,97855.8
2022-11-21T18:50:59.196Z,97788.1
2022-11-21T18:56:35.052Z,97758
2022-11-21T19:02:28.812Z,97761.4
2022-11-21T19:08:05.173Z,97777.6
2022-11-21T19:13:40.299Z,97787.1
2022-11-21T19:19:36.550Z,97770.9
2022-11-21T19:25:11.865Z,97786
2022-11-21T19:31:00.860Z,97775.3
2022-11-21T19:36:35.707Z,97753.3
2022-11-21T19:42:21.697Z,97758
2022-11-21T19:47:57.250Z,97752.4
2022-11-21T19:53:33.785Z,97785.1
2022-11-21T19:59:08.943Z,97807.9
2022-11-21T20:04:59.164Z,97860.4
2022-11-21T20:10:37.128Z,97908.5
2022-11-21T20:16:16.308Z,97825.4
2022-11-21T20:21:51.371Z,97810.5
2022-11-21T20:27:35.472Z,97829.3
2022-11-21T20:33:29.763Z,97831.4
2022-11-21T20:39:04.926Z,97834.3
2022-11-21T20:46:10.905Z,97837.3
2022-11-21T20:54:02.973Z,97852.2
2022-11-21T20:59:49.030Z,97839.6
2022-11-21T21:05:24.043Z,97829.3
2022-11-21T21:11:13.344Z,97837.5
2022-11-21T21:17:29.453Z,97875.3
2022-11-21T21:23:07.151Z,97849.6
2022-11-21T21:28:42.072Z,97854.1
2022-11-21T21:34:17.283Z,97911.4
2022-11-21T21:39:52.247Z,97928.5
2022-11-21T21:45:27.615Z,97878.9
2022-11-21T21:51:02.928Z,97875
2022-11-21T21:56:38.360Z,97881.9
2022-11-21T22:02:14.019Z,97886.8
2022-11-21T22:07:50.120Z,97948.8
2022-11-21T22:13:30.104Z,97941.3
2022-11-21T22:19:05.724Z,97942.8
2022-11-21T22:24:42.238Z,97935.1
2022-11-21T22:30:19.748Z,97922.3
2022-11-21T22:35:54.822Z,97925.9
2022-11-21T22:41:33.137Z,97937.7
2022-11-21T22:47:29.900Z,97970.9
2022-11-21T22:53:04.352Z,97971.5
2022-11-21T22:58:40.717Z,97971.3
2022-11-21T23:04:36.581Z,97975.2
2022-11-21T23:10:11.971Z,97980.1
2022-11-21T23:15:55.996Z,97973.4
2022-11-21T23:21:39.540Z,97962.8
2022-11-21T23:27:29.636Z,97974.7
2022-11-21T23:33:05.807Z,97971.5
2022-11-21T23:38:40.803Z,97941.5
2022-11-21T23:44:22.820Z,97943
2022-11-21T23:49:57.485Z,97931.7
2022-11-21T23:55:38.881Z,97933.9
